Wind From: 11-12-2017 06:00 Until: 12-12-2017 06:00 warning for: Wind Level: Orange info button

Power and phone distribution networks may be disrupted for relatively long periods., Roofs and chimneys can be damaged. , Tree branches may break. , Vehicles can be deported. , Traffic may be disrupted, particularly on secondary roads in forest areas. Limit your trips. , Limit your speed in highway driving, especially if you drive a vehicle or hitch sensitive to wind. , Do not go for walks in forests or along the coast., In town, be vigilant against possible falling objects., Do not work on roofs and do not touch any electrical line fallen on the ground., Store or secure sensitive objects to wind or likely to be damaged., Always install power generators outside buildings. 


Meteo18 Weather Cam more information Meteo18 Weather Cam


Thunder radar more information blitzortung!


Rain radar more information rain snow radar


Visit our other weather sites:

Template documentation
and downloads

And another site



Weather Underground History page Text

Daily Summary for October 4, 2017 Units:  Both    English   Metric
« Previous Day
Next Day »
Daily Weekly Monthly Yearly Custom
  High: Low: Average:
Temperature: 66 °F /  18.9 °C 43.5 °F /  6.4 °C 52.9 °F /  11.6 °C
Dew Point: 52.3 °F /  11.3 °C 42.3 °F /  5.7 °C 47.1 °F /  8.4 °C
Humidity: 96 % 52 % 82 %
Wind Speed: 3 mph /  4.8 km/h - 0.4 mph /  0.6 km/h
Wind Gust: 6 mph /  9.7 km/h - -
Wind:- - SSW
Pressure: 30.4 in /  1028.0 hPa 30.3 in /  1025.3 hPa -
Precipitation: 0 in /  0.0 mm    
Historical Graphs
 
 
Tabular Data for October 4, 2017
Time Temperature Dew Point Pressure Wind Wind Speed Wind Gust Humidity Rainfall Rate (Hourly)
00:02 48.7 °F /  9.3 °C 46.2 °F /  7.9 °C 30.4 in /  1028.0 hPa WNW 1 mph /  1.6 km/h 1 mph /  1.6 km/h 91 % 0 in /  0.0 mm
00:12 48.4 °F /  9.1 °C 46.2 °F /  7.9 °C 30.4 in /  1028.0 hPa Calm   2 mph /  3.2 km/h 92 % 0 in /  0.0 mm
00:17 48.2 °F /  9.0 °C 45.7 °F /  7.6 °C 30.4 in /  1028.0 hPa Calm   2 mph /  3.2 km/h 91 % 0 in /  0.0 mm
00:22 48.2 °F /  9.0 °C 46 °F /  7.8 °C 30.4 in /  1028.0 hPa WNW 1 mph /  1.6 km/h 2 mph /  3.2 km/h 92 % 0 in /  0.0 mm
00:32 47.8 °F /  8.8 °C 45.7 °F /  7.6 °C 30.4 in /  1028.0 hPa Calm   1 mph /  1.6 km/h 92 % 0 in /  0.0 mm
00:42 47.7 °F /  8.7 °C 45.7 °F /  7.6 °C 30.4 in /  1028.0 hPa Calm   1 mph /  1.6 km/h 93 % 0 in /  0.0 mm
00:47 47.7 °F /  8.7 °C 45.7 °F /  7.6 °C 30.4 in /  1028.0 hPa North 1 mph /  1.6 km/h 1 mph /  1.6 km/h 93 % 0 in /  0.0 mm
00:52 48 °F /  8.9 °C 46 °F /  7.8 °C 30.4 in /  1028.0 hPa NNW 1 mph /  1.6 km/h 2 mph /  3.2 km/h 93 % 0 in /  0.0 mm
00:57 48 °F /  8.9 °C 46 °F /  7.8 °C 30.4 in /  1028.0 hPa Calm   2 mph /  3.2 km/h 93 % 0 in /  0.0 mm
01:02 47.7 °F /  8.7 °C 45.5 °F /  7.5 °C 30.4 in /  1027.7 hPa Calm   2 mph /  3.2 km/h 92 % 0 in /  0.0 mm
01:12 47.5 °F /  8.6 °C 45.5 °F /  7.5 °C 30.4 in /  1027.7 hPa NNE 1 mph /  1.6 km/h   93 % 0 in /  0.0 mm
01:17 47.5 °F /  8.6 °C 45.5 °F /  7.5 °C 30.4 in /  1027.7 hPa Calm   1 mph /  1.6 km/h 93 % 0 in /  0.0 mm
01:22 47.1 °F /  8.4 °C 45 °F /  7.2 °C 30.4 in /  1027.7 hPa Calm   1 mph /  1.6 km/h 92 % 0 in /  0.0 mm
01:27 47.1 °F /  8.4 °C 45.1 °F /  7.3 °C 30.4 in /  1027.7 hPa Calm   1 mph /  1.6 km/h 93 % 0 in /  0.0 mm
01:32 46.9 °F /  8.3 °C 45 °F /  7.2 °C 30.4 in /  1027.7 hPa Calm   1 mph /  1.6 km/h 93 % 0 in /  0.0 mm
01:37 46.8 °F /  8.2 °C 44.8 °F /  7.1 °C 30.3 in /  1027.3 hPa Calm   1 mph /  1.6 km/h 93 % 0 in /  0.0 mm
01:42 46.9 °F /  8.3 °C 45.3 °F /  7.4 °C 30.3 in /  1027.3 hPa NNW 1 mph /  1.6 km/h 1 mph /  1.6 km/h 94 % 0 in /  0.0 mm
01:47 46.9 °F /  8.3 °C 45.3 °F /  7.4 °C 30.3 in /  1027.3 hPa NNW 2 mph /  3.2 km/h 2 mph /  3.2 km/h 94 % 0 in /  0.0 mm
01:52 46.9 °F /  8.3 °C 45.3 °F /  7.4 °C 30.3 in /  1027.3 hPa Calm   3 mph /  4.8 km/h 94 % 0 in /  0.0 mm
01:57 46.8 °F /  8.2 °C 45.1 °F /  7.3 °C 30.3 in /  1027.3 hPa NW 1 mph /  1.6 km/h 3 mph /  4.8 km/h 94 % 0 in /  0.0 mm
02:02 46.8 °F /  8.2 °C 45.1 °F /  7.3 °C 30.3 in /  1027.0 hPa Calm   3 mph /  4.8 km/h 94 % 0 in /  0.0 mm
02:12 46.6 °F /  8.1 °C 45 °F /  7.2 °C 30.3 in /  1027.0 hPa WNW 1 mph /  1.6 km/h 1 mph /  1.6 km/h 94 % 0 in /  0.0 mm
02:17 46.4 °F /  8.0 °C 44.8 °F /  7.1 °C 30.3 in /  1027.3 hPa Calm   1 mph /  1.6 km/h 94 % 0 in /  0.0 mm
02:22 46.2 °F /  7.9 °C 44.6 °F /  7.0 °C 30.3 in /  1027.3 hPa Calm   1 mph /  1.6 km/h 94 % 0 in /  0.0 mm
02:27 46 °F /  7.8 °C 44.4 °F /  6.9 °C 30.3 in /  1027.3 hPa Calm   1 mph /  1.6 km/h 94 % 0 in /  0.0 mm
02:32 46.2 °F /  7.9 °C 44.8 °F /  7.1 °C 30.3 in /  1027.3 hPa North 1 mph /  1.6 km/h 1 mph /  1.6 km/h 95 % 0 in /  0.0 mm
02:37 46.2 °F /  7.9 °C 44.8 °F /  7.1 °C 30.3 in /  1027.3 hPa NNW 1 mph /  1.6 km/h 2 mph /  3.2 km/h 95 % 0 in /  0.0 mm
02:42 46.6 °F /  8.1 °C 45.1 °F /  7.3 °C 30.3 in /  1027.3 hPa Calm   2 mph /  3.2 km/h 95 % 0 in /  0.0 mm
02:47 46.8 °F /  8.2 °C 45.3 °F /  7.4 °C 30.3 in /  1027.0 hPa Calm   2 mph /  3.2 km/h 95 % 0 in /  0.0 mm
02:52 46.8 °F /  8.2 °C 45.1 °F /  7.3 °C 30.3 in /  1027.0 hPa Calm   2 mph /  3.2 km/h 94 % 0 in /  0.0 mm
02:57 46.6 °F /  8.1 °C 44.6 °F /  7.0 °C 30.3 in /  1027.0 hPa NNW 1 mph /  1.6 km/h 1 mph /  1.6 km/h 93 % 0 in /  0.0 mm
03:02 46.2 °F /  7.9 °C 44.6 °F /  7.0 °C 30.3 in /  1027.0 hPa Calm   1 mph /  1.6 km/h 94 % 0 in /  0.0 mm
03:07 46.2 °F /  7.9 °C 44.6 °F /  7.0 °C 30.3 in /  1027.0 hPa Calm   1 mph /  1.6 km/h 94 % 0 in /  0.0 mm
03:12 46.4 °F /  8.0 °C 44.8 °F /  7.1 °C 30.3 in /  1027.0 hPa Calm   1 mph /  1.6 km/h 94 % 0 in /  0.0 mm
03:17 46.4 °F /  8.0 °C 44.8 °F /  7.1 °C 30.3 in /  1027.3 hPa NNW 1 mph /  1.6 km/h 2 mph /  3.2 km/h 94 % 0 in /  0.0 mm
03:22 46.2 °F /  7.9 °C 44.6 °F /  7.0 °C 30.3 in /  1027.3 hPa NNW 2 mph /  3.2 km/h 2 mph /  3.2 km/h 94 % 0 in /  0.0 mm
03:27 46 °F /  7.8 °C 44.4 °F /  6.9 °C 30.4 in /  1027.7 hPa NNW 1 mph /  1.6 km/h 3 mph /  4.8 km/h 94 % 0 in /  0.0 mm
03:32 46 °F /  7.8 °C 44.4 °F /  6.9 °C 30.3 in /  1027.3 hPa North 1 mph /  1.6 km/h 3 mph /  4.8 km/h 94 % 0 in /  0.0 mm
03:42 46.4 °F /  8.0 °C 44.8 °F /  7.1 °C 30.3 in /  1027.0 hPa Calm   2 mph /  3.2 km/h 94 % 0 in /  0.0 mm
03:47 46.2 °F /  7.9 °C 44.2 °F /  6.8 °C 30.3 in /  1027.0 hPa Calm   1 mph /  1.6 km/h 93 % 0 in /  0.0 mm
03:52 46 °F /  7.8 °C 44.1 °F /  6.7 °C 30.3 in /  1027.3 hPa NW 1 mph /  1.6 km/h 1 mph /  1.6 km/h 93 % 0 in /  0.0 mm
03:57 45.9 °F /  7.7 °C 43.9 °F /  6.6 °C 30.3 in /  1027.3 hPa Calm   1 mph /  1.6 km/h 93 % 0 in /  0.0 mm
04:02 46 °F /  7.8 °C 44.4 °F /  6.9 °C 30.3 in /  1027.0 hPa Calm   1 mph /  1.6 km/h 94 % 0 in /  0.0 mm
04:07 45.9 °F /  7.7 °C 43.9 °F /  6.6 °C 30.3 in /  1027.0 hPa Calm   1 mph /  1.6 km/h 93 % 0 in /  0.0 mm
04:12 45.3 °F /  7.4 °C 43.3 °F /  6.3 °C 30.3 in /  1027.3 hPa Calm   1 mph /  1.6 km/h 93 % 0 in /  0.0 mm
04:17 45.3 °F /  7.4 °C 43.7 °F /  6.5 °C 30.3 in /  1027.3 hPa North 2 mph /  3.2 km/h 2 mph /  3.2 km/h 94 % 0 in /  0.0 mm
04:22 45.7 °F /  7.6 °C 44.4 °F /  6.9 °C 30.3 in /  1027.3 hPa North 1 mph /  1.6 km/h 2 mph /  3.2 km/h 95 % 0 in /  0.0 mm
04:27 45.9 °F /  7.7 °C 44.2 °F /  6.8 °C 30.3 in /  1027.3 hPa NNW 1 mph /  1.6 km/h 2 mph /  3.2 km/h 94 % 0 in /  0.0 mm
04:32 46 °F /  7.8 °C 44.4 °F /  6.9 °C 30.3 in /  1027.0 hPa Calm   2 mph /  3.2 km/h 94 % 0 in /  0.0 mm
04:37 45.9 °F /  7.7 °C 44.2 °F /  6.8 °C 30.3 in /  1027.0 hPa Calm   2 mph /  3.2 km/h 94 % 0 in /  0.0 mm
04:42 45.7 °F /  7.6 °C 43.7 °F /  6.5 °C 30.3 in /  1027.0 hPa Calm   2 mph /  3.2 km/h 93 % 0 in /  0.0 mm
04:47 45.1 °F /  7.3 °C 43.2 °F /  6.2 °C 30.3 in /  1027.0 hPa NW 1 mph /  1.6 km/h   93 % 0 in /  0.0 mm
04:52 45 °F /  7.2 °C 43.3 °F /  6.3 °C 30.3 in /  1027.3 hPa Calm   2 mph /  3.2 km/h 94 % 0 in /  0.0 mm
04:57 45 °F /  7.2 °C 43.3 °F /  6.3 °C 30.3 in /  1027.3 hPa Calm   2 mph /  3.2 km/h 94 % 0 in /  0.0 mm
05:02 45 °F /  7.2 °C 43.3 °F /  6.3 °C 30.3 in /  1027.0 hPa Calm   2 mph /  3.2 km/h 94 % 0 in /  0.0 mm
05:07 44.8 °F /  7.1 °C 43.2 °F /  6.2 °C 30.3 in /  1027.3 hPa North 1 mph /  1.6 km/h 1 mph /  1.6 km/h 94 % 0 in /  0.0 mm
05:17 44.8 °F /  7.1 °C 43.5 °F /  6.4 °C 30.3 in /  1027.3 hPa North 1 mph /  1.6 km/h 2 mph /  3.2 km/h 95 % 0 in /  0.0 mm
05:22 44.8 °F /  7.1 °C 43.5 °F /  6.4 °C 30.3 in /  1027.0 hPa North 1 mph /  1.6 km/h 2 mph /  3.2 km/h 95 % 0 in /  0.0 mm
05:32 44.8 °F /  7.1 °C 43.5 °F /  6.4 °C 30.3 in /  1027.3 hPa North 1 mph /  1.6 km/h 1 mph /  1.6 km/h 95 % 0 in /  0.0 mm
05:37 44.6 °F /  7.0 °C 43.3 °F /  6.3 °C 30.3 in /  1027.3 hPa North 1 mph /  1.6 km/h 1 mph /  1.6 km/h 95 % 0 in /  0.0 mm
05:42 44.4 °F /  6.9 °C 43.2 °F /  6.2 °C 30.3 in /  1027.3 hPa North 1 mph /  1.6 km/h 1 mph /  1.6 km/h 95 % 0 in /  0.0 mm
05:47 44.2 °F /  6.8 °C 42.6 °F /  5.9 °C 30.3 in /  1027.3 hPa Calm   2 mph /  3.2 km/h 94 % 0 in /  0.0 mm
05:57 44.2 °F /  6.8 °C 43 °F /  6.1 °C 30.3 in /  1027.3 hPa Calm   2 mph /  3.2 km/h 95 % 0 in /  0.0 mm
06:02 44.2 °F /  6.8 °C 43 °F /  6.1 °C 30.3 in /  1027.3 hPa Calm   2 mph /  3.2 km/h 95 % 0 in /  0.0 mm
06:12 44.1 °F /  6.7 °C 42.4 °F /  5.8 °C 30.3 in /  1027.3 hPa Calm   1 mph /  1.6 km/h 94 % 0 in /  0.0 mm
06:17 43.7 °F /  6.5 °C 42.4 °F /  5.8 °C 30.3 in /  1027.0 hPa Calm     95 % 0 in /  0.0 mm
06:22 43.5 °F /  6.4 °C 42.3 °F /  5.7 °C 30.3 in /  1027.0 hPa Calm     95 % 0 in /  0.0 mm
06:32 43.7 °F /  6.5 °C 42.4 °F /  5.8 °C 30.3 in /  1027.0 hPa Calm   1 mph /  1.6 km/h 95 % 0 in /  0.0 mm
06:37 43.9 °F /  6.6 °C 42.8 °F /  6.0 °C 30.3 in /  1027.0 hPa Calm   1 mph /  1.6 km/h 96 % 0 in /  0.0 mm
06:42 44.2 °F /  6.8 °C 43.2 °F /  6.2 °C 30.3 in /  1027.0 hPa Calm   1 mph /  1.6 km/h 96 % 0 in /  0.0 mm
06:47 44.4 °F /  6.9 °C 43.3 °F /  6.3 °C 30.3 in /  1027.3 hPa Calm   1 mph /  1.6 km/h 96 % 0 in /  0.0 mm
06:57 44.4 °F /  6.9 °C 43.2 °F /  6.2 °C 30.3 in /  1027.3 hPa Calm   2 mph /  3.2 km/h 95 % 0 in /  0.0 mm
07:02 44.4 °F /  6.9 °C 43.2 °F /  6.2 °C 30.3 in /  1027.0 hPa Calm   2 mph /  3.2 km/h 95 % 0 in /  0.0 mm
07:12 44.4 °F /  6.9 °C 43.2 °F /  6.2 °C 30.3 in /  1027.3 hPa Calm   1 mph /  1.6 km/h 95 % 0 in /  0.0 mm
07:17 44.4 °F /  6.9 °C 43.3 °F /  6.3 °C 30.3 in /  1027.0 hPa Calm     96 % 0 in /  0.0 mm
07:22 44.4 °F /  6.9 °C 43.3 °F /  6.3 °C 30.3 in /  1027.0 hPa Calm   1 mph /  1.6 km/h 96 % 0 in /  0.0 mm
07:27 44.6 °F /  7.0 °C 43.5 °F /  6.4 °C 30.3 in /  1027.0 hPa Calm   1 mph /  1.6 km/h 96 % 0 in /  0.0 mm
07:32 44.8 °F /  7.1 °C 43.7 °F /  6.5 °C 30.3 in /  1027.0 hPa Calm   1 mph /  1.6 km/h 96 % 0 in /  0.0 mm
07:47 44.2 °F /  6.8 °C 43 °F /  6.1 °C 30.3 in /  1027.0 hPa Calm     95 % 0 in /  0.0 mm
07:52 44.2 °F /  6.8 °C 43.2 °F /  6.2 °C 30.3 in /  1027.0 hPa Calm     96 % 0 in /  0.0 mm
07:57 44.4 °F /  6.9 °C 43.3 °F /  6.3 °C 30.3 in /  1027.0 hPa Calm     96 % 0 in /  0.0 mm
08:02 44.4 °F /  6.9 °C 43.3 °F /  6.3 °C 30.3 in /  1027.3 hPa NNE 1 mph /  1.6 km/h 1 mph /  1.6 km/h 96 % 0 in /  0.0 mm
08:12 44.4 °F /  6.9 °C 43.3 °F /  6.3 °C 30.3 in /  1027.3 hPa Calm   1 mph /  1.6 km/h 96 % 0 in /  0.0 mm
08:17 44.4 °F /  6.9 °C 43.3 °F /  6.3 °C 30.3 in /  1027.0 hPa Calm   1 mph /  1.6 km/h 96 % 0 in /  0.0 mm
08:22 44.4 °F /  6.9 °C 43.3 °F /  6.3 °C 30.3 in /  1027.0 hPa Calm   1 mph /  1.6 km/h 96 % 0 in /  0.0 mm
08:32 44.8 °F /  7.1 °C 43.7 °F /  6.5 °C 30.3 in /  1027.0 hPa Calm     96 % 0 in /  0.0 mm
08:37 45 °F /  7.2 °C 43.9 °F /  6.6 °C 30.3 in /  1027.0 hPa Calm     96 % 0 in /  0.0 mm
08:42 45.1 °F /  7.3 °C 44.1 °F /  6.7 °C 30.3 in /  1027.3 hPa Calm     96 % 0 in /  0.0 mm
08:52 45.5 °F /  7.5 °C 44.4 °F /  6.9 °C 30.3 in /  1027.3 hPa Calm     96 % 0 in /  0.0 mm
08:57 45.7 °F /  7.6 °C 44.6 °F /  7.0 °C 30.3 in /  1027.3 hPa Calm     96 % 0 in /  0.0 mm
09:02 45.9 °F /  7.7 °C 44.8 °F /  7.1 °C 30.3 in /  1027.3 hPa Calm     96 % 0 in /  0.0 mm
09:12 46.2 °F /  7.9 °C 45.1 °F /  7.3 °C 30.3 in /  1027.3 hPa Calm     96 % 0 in /  0.0 mm
09:17 46.6 °F /  8.1 °C 45.5 °F /  7.5 °C 30.4 in /  1027.7 hPa Calm     96 % 0 in /  0.0 mm
09:22 46.8 °F /  8.2 °C 45.7 °F /  7.6 °C 30.4 in /  1027.7 hPa Calm     96 % 0 in /  0.0 mm
09:27 46.9 °F /  8.3 °C 45.9 °F /  7.7 °C 30.4 in /  1027.7 hPa Calm     96 % 0 in /  0.0 mm
09:32 47.1 °F /  8.4 °C 46 °F /  7.8 °C 30.4 in /  1027.7 hPa Calm     96 % 0 in /  0.0 mm
09:37 47.3 °F /  8.5 °C 46.2 °F /  7.9 °C 30.4 in /  1027.7 hPa Calm     96 % 0 in /  0.0 mm
09:42 47.7 °F /  8.7 °C 46.6 °F /  8.1 °C 30.4 in /  1027.7 hPa Calm     96 % 0 in /  0.0 mm
09:47 47.8 °F /  8.8 °C 46.8 °F /  8.2 °C 30.4 in /  1027.7 hPa Calm     96 % 0 in /  0.0 mm
09:52 48.2 °F /  9.0 °C 47.1 °F /  8.4 °C 30.4 in /  1027.7 hPa Calm     96 % 0 in /  0.0 mm
09:57 48.4 °F /  9.1 °C 47.3 °F /  8.5 °C 30.4 in /  1027.7 hPa Calm     96 % 0 in /  0.0 mm
10:02 48.6 °F /  9.2 °C 47.1 °F /  8.4 °C 30.4 in /  1027.7 hPa Calm     95 % 0 in /  0.0 mm
10:12 49.3 °F /  9.6 °C 47.8 °F /  8.8 °C 30.4 in /  1027.7 hPa Calm     95 % 0 in /  0.0 mm
10:17 49.8 °F /  9.9 °C 48.4 °F /  9.1 °C 30.4 in /  1027.7 hPa Calm     95 % 0 in /  0.0 mm
10:22 50.2 °F /  10.1 °C 48.6 °F /  9.2 °C 30.4 in /  1027.7 hPa Calm     94 % 0 in /  0.0 mm
10:27 50.5 °F /  10.3 °C 48.9 °F /  9.4 °C 30.4 in /  1027.7 hPa Calm     94 % 0 in /  0.0 mm
10:32 50.9 °F /  10.5 °C 48.9 °F /  9.4 °C 30.4 in /  1027.7 hPa Calm     93 % 0 in /  0.0 mm
10:37 51.3 °F /  10.7 °C 49.1 °F /  9.5 °C 30.4 in /  1028.0 hPa Calm     92 % 0 in /  0.0 mm
10:42 51.8 °F /  11.0 °C 49.3 °F /  9.6 °C 30.4 in /  1028.0 hPa Calm     91 % 0 in /  0.0 mm
10:47 52 °F /  11.1 °C 48.6 °F /  9.2 °C 30.4 in /  1028.0 hPa Calm     88 % 0 in /  0.0 mm
10:52 52.3 °F /  11.3 °C 48.6 °F /  9.2 °C 30.4 in /  1028.0 hPa Calm     87 % 0 in /  0.0 mm
10:57 52.3 °F /  11.3 °C 47.3 °F /  8.5 °C 30.4 in /  1028.0 hPa Calm     83 % 0 in /  0.0 mm
11:02 52.5 °F /  11.4 °C 48.2 °F /  9.0 °C 30.4 in /  1028.0 hPa Calm     85 % 0 in /  0.0 mm
11:12 53.2 °F /  11.8 °C 48.6 °F /  9.2 °C 30.4 in /  1028.0 hPa Calm     84 % 0 in /  0.0 mm
11:17 53.6 °F /  12.0 °C 48.9 °F /  9.4 °C 30.4 in /  1028.0 hPa Calm     84 % 0 in /  0.0 mm
11:22 53.8 °F /  12.1 °C 48.7 °F /  9.3 °C 30.4 in /  1028.0 hPa Calm   2 mph /  3.2 km/h 83 % 0 in /  0.0 mm
11:32 55 °F /  12.8 °C 49.6 °F /  9.8 °C 30.4 in /  1028.0 hPa Calm   2 mph /  3.2 km/h 82 % 0 in /  0.0 mm
11:37 55.8 °F /  13.2 °C 49.6 °F /  9.8 °C 30.4 in /  1028.0 hPa Calm   1 mph /  1.6 km/h 80 % 0 in /  0.0 mm
11:42 55.9 °F /  13.3 °C 49.5 °F /  9.7 °C 30.4 in /  1028.0 hPa Calm   2 mph /  3.2 km/h 79 % 0 in /  0.0 mm
11:47 55.9 °F /  13.3 °C 49.5 °F /  9.7 °C 30.4 in /  1028.0 hPa Calm   2 mph /  3.2 km/h 79 % 0 in /  0.0 mm
11:52 56.1 °F /  13.4 °C 50.4 °F /  10.2 °C 30.4 in /  1028.0 hPa Calm   2 mph /  3.2 km/h 81 % 0 in /  0.0 mm
11:57 56.7 °F /  13.7 °C 50.2 °F /  10.1 °C 30.4 in /  1028.0 hPa Calm   2 mph /  3.2 km/h 79 % 0 in /  0.0 mm
12:02 57 °F /  13.9 °C 50.5 °F /  10.3 °C 30.4 in /  1028.0 hPa Calm   2 mph /  3.2 km/h 79 % 0 in /  0.0 mm
12:07 56.5 °F /  13.6 °C 49.6 °F /  9.8 °C 30.4 in /  1028.0 hPa ESE 1 mph /  1.6 km/h 2 mph /  3.2 km/h 78 % 0 in /  0.0 mm
12:12 56.3 °F /  13.5 °C 50.5 °F /  10.3 °C 30.4 in /  1028.0 hPa Calm   4 mph /  6.4 km/h 81 % 0 in /  0.0 mm
12:17 57 °F /  13.9 °C 50.9 °F /  10.5 °C 30.4 in /  1028.0 hPa South 3 mph /  4.8 km/h 4 mph /  6.4 km/h 80 % 0 in /  0.0 mm
12:22 57.6 °F /  14.2 °C 51.1 °F /  10.6 °C 30.4 in /  1027.7 hPa ESE 1 mph /  1.6 km/h 3 mph /  4.8 km/h 79 % 0 in /  0.0 mm
12:32 57.9 °F /  14.4 °C 50.7 °F /  10.4 °C 30.4 in /  1027.7 hPa SSW 1 mph /  1.6 km/h 4 mph /  6.4 km/h 77 % 0 in /  0.0 mm
12:42 58.8 °F /  14.9 °C 50.9 °F /  10.5 °C 30.4 in /  1027.7 hPa Calm   5 mph /  8.0 km/h 75 % 0 in /  0.0 mm
12:57 59.5 °F /  15.3 °C 51.3 °F /  10.7 °C 30.4 in /  1027.7 hPa Calm   4 mph /  6.4 km/h 74 % 0 in /  0.0 mm
13:02 59.5 °F /  15.3 °C 50.9 °F /  10.5 °C 30.4 in /  1027.7 hPa ESE 3 mph /  4.8 km/h 4 mph /  6.4 km/h 73 % 0 in /  0.0 mm
13:07 59.7 °F /  15.4 °C 51.1 °F /  10.6 °C 30.4 in /  1027.7 hPa ESE 1 mph /  1.6 km/h 4 mph /  6.4 km/h 73 % 0 in /  0.0 mm
13:12 60.4 °F /  15.8 °C 51.1 °F /  10.6 °C 30.4 in /  1027.7 hPa Calm   4 mph /  6.4 km/h 71 % 0 in /  0.0 mm
13:17 61 °F /  16.1 °C 50 °F /  10.0 °C 30.4 in /  1027.7 hPa Calm   4 mph /  6.4 km/h 67 % 0 in /  0.0 mm
13:22 61.3 °F /  16.3 °C 50.7 °F /  10.4 °C 30.4 in /  1027.7 hPa Calm   4 mph /  6.4 km/h 68 % 0 in /  0.0 mm
13:27 61.3 °F /  16.3 °C 50.4 °F /  10.2 °C 30.4 in /  1027.7 hPa Calm   4 mph /  6.4 km/h 67 % 0 in /  0.0 mm
13:32 61.2 °F /  16.2 °C 49.3 °F /  9.6 °C 30.4 in /  1027.7 hPa East 1 mph /  1.6 km/h 3 mph /  4.8 km/h 65 % 0 in /  0.0 mm
13:37 61.2 °F /  16.2 °C 48.9 °F /  9.4 °C 30.4 in /  1027.7 hPa Calm   3 mph /  4.8 km/h 64 % 0 in /  0.0 mm
13:47 61.5 °F /  16.4 °C 49.3 °F /  9.6 °C 30.4 in /  1027.7 hPa SW 2 mph /  3.2 km/h 5 mph /  8.0 km/h 64 % 0 in /  0.0 mm
13:52 61.9 °F /  16.6 °C 49.6 °F /  9.8 °C 30.4 in /  1027.7 hPa SE 1 mph /  1.6 km/h 4 mph /  6.4 km/h 64 % 0 in /  0.0 mm
13:57 61.9 °F /  16.6 °C 48.7 °F /  9.3 °C 30.4 in /  1027.7 hPa SSW 1 mph /  1.6 km/h 4 mph /  6.4 km/h 62 % 0 in /  0.0 mm
14:02 62.1 °F /  16.7 °C 48.4 °F /  9.1 °C 30.4 in /  1027.7 hPa Calm   3 mph /  4.8 km/h 61 % 0 in /  0.0 mm
14:07 62.2 °F /  16.8 °C 48.6 °F /  9.2 °C 30.4 in /  1027.7 hPa ENE 2 mph /  3.2 km/h 3 mph /  4.8 km/h 61 % 0 in /  0.0 mm
14:12 62.4 °F /  16.9 °C 49.3 °F /  9.6 °C 30.4 in /  1027.7 hPa SE 2 mph /  3.2 km/h 3 mph /  4.8 km/h 62 % 0 in /  0.0 mm
14:17 62.8 °F /  17.1 °C 48.7 °F /  9.3 °C 30.3 in /  1027.3 hPa SW 2 mph /  3.2 km/h 3 mph /  4.8 km/h 60 % 0 in /  0.0 mm
14:22 62.8 °F /  17.1 °C 47.8 °F /  8.8 °C 30.3 in /  1027.3 hPa Calm   3 mph /  4.8 km/h 58 % 0 in /  0.0 mm
14:32 62.1 °F /  16.7 °C 48.4 °F /  9.1 °C 30.3 in /  1027.0 hPa SW 2 mph /  3.2 km/h 5 mph /  8.0 km/h 61 % 0 in /  0.0 mm
14:37 62.2 °F /  16.8 °C 49.1 °F /  9.5 °C 30.3 in /  1027.0 hPa South 1 mph /  1.6 km/h 5 mph /  8.0 km/h 62 % 0 in /  0.0 mm
14:42 62.8 °F /  17.1 °C 49.1 °F /  9.5 °C 30.3 in /  1027.0 hPa SE 1 mph /  1.6 km/h 5 mph /  8.0 km/h 61 % 0 in /  0.0 mm
14:47 62.8 °F /  17.1 °C 49.1 °F /  9.5 °C 30.3 in /  1026.6 hPa Calm   5 mph /  8.0 km/h 61 % 0 in /  0.0 mm
14:52 63 °F /  17.2 °C 48.9 °F /  9.4 °C 30.3 in /  1026.6 hPa ESE 3 mph /  4.8 km/h 5 mph /  8.0 km/h 60 % 0 in /  0.0 mm
14:57 62.6 °F /  17.0 °C 48 °F /  8.9 °C 30.3 in /  1026.6 hPa SSE 1 mph /  1.6 km/h 5 mph /  8.0 km/h 59 % 0 in /  0.0 mm
15:02 62.8 °F /  17.1 °C 47.8 °F /  8.8 °C 30.3 in /  1026.6 hPa ESE 2 mph /  3.2 km/h 5 mph /  8.0 km/h 58 % 0 in /  0.0 mm
15:12 63.1 °F /  17.3 °C 48.2 °F /  9.0 °C 30.3 in /  1026.6 hPa SW 1 mph /  1.6 km/h 5 mph /  8.0 km/h 58 % 0 in /  0.0 mm
15:17 63.3 °F /  17.4 °C 49.3 °F /  9.6 °C 30.3 in /  1027.0 hPa Calm   3 mph /  4.8 km/h 60 % 0 in /  0.0 mm
15:22 63.7 °F /  17.6 °C 47.7 °F /  8.7 °C 30.3 in /  1026.6 hPa East 1 mph /  1.6 km/h 3 mph /  4.8 km/h 56 % 0 in /  0.0 mm
15:27 63 °F /  17.2 °C 48.9 °F /  9.4 °C 30.3 in /  1026.6 hPa Calm   3 mph /  4.8 km/h 60 % 0 in /  0.0 mm
15:32 63 °F /  17.2 °C 48.9 °F /  9.4 °C 30.3 in /  1026.6 hPa SSW 1 mph /  1.6 km/h 3 mph /  4.8 km/h 60 % 0 in /  0.0 mm
15:37 63.3 °F /  17.4 °C 48.4 °F /  9.1 °C 30.3 in /  1026.6 hPa SE 1 mph /  1.6 km/h 4 mph /  6.4 km/h 58 % 0 in /  0.0 mm
15:42 63.7 °F /  17.6 °C 48.2 °F /  9.0 °C 30.3 in /  1026.6 hPa NW 2 mph /  3.2 km/h 4 mph /  6.4 km/h 57 % 0 in /  0.0 mm
15:52 63.7 °F /  17.6 °C 47.3 °F /  8.5 °C 30.3 in /  1026.6 hPa ENE 2 mph /  3.2 km/h 3 mph /  4.8 km/h 55 % 0 in /  0.0 mm
15:57 63.3 °F /  17.4 °C 47.8 °F /  8.8 °C 30.3 in /  1026.6 hPa Calm   3 mph /  4.8 km/h 57 % 0 in /  0.0 mm
16:02 64 °F /  17.8 °C 49.5 °F /  9.7 °C 30.3 in /  1026.6 hPa SW 3 mph /  4.8 km/h 3 mph /  4.8 km/h 59 % 0 in /  0.0 mm
16:07 64.6 °F /  18.1 °C 48.6 °F /  9.2 °C 30.3 in /  1026.3 hPa West 3 mph /  4.8 km/h 4 mph /  6.4 km/h 56 % 0 in /  0.0 mm
16:12 64.6 °F /  18.1 °C 48.6 °F /  9.2 °C 30.3 in /  1026.3 hPa SW 1 mph /  1.6 km/h 5 mph /  8.0 km/h 56 % 0 in /  0.0 mm
16:17 64.6 °F /  18.1 °C 48.6 °F /  9.2 °C 30.3 in /  1026.3 hPa Calm   5 mph /  8.0 km/h 56 % 0 in /  0.0 mm
16:22 64.8 °F /  18.2 °C 48.7 °F /  9.3 °C 30.3 in /  1026.0 hPa Calm   5 mph /  8.0 km/h 56 % 0 in /  0.0 mm
16:32 64.8 °F /  18.2 °C 48.7 °F /  9.3 °C 30.3 in /  1026.0 hPa SSW 2 mph /  3.2 km/h 6 mph /  9.7 km/h 56 % 0 in /  0.0 mm
16:37 64.8 °F /  18.2 °C 48.7 °F /  9.3 °C 30.3 in /  1026.0 hPa Calm   5 mph /  8.0 km/h 56 % 0 in /  0.0 mm
16:42 65.3 °F /  18.5 °C 48.2 °F /  9.0 °C 30.3 in /  1026.0 hPa Calm   5 mph /  8.0 km/h 54 % 0 in /  0.0 mm
16:47 65.5 °F /  18.6 °C 47.5 °F /  8.6 °C 30.3 in /  1026.0 hPa Calm   5 mph /  8.0 km/h 52 % 0 in /  0.0 mm
16:52 64.9 °F /  18.3 °C 48.4 °F /  9.1 °C 30.3 in /  1026.0 hPa Calm   2 mph /  3.2 km/h 55 % 0 in /  0.0 mm
16:57 65.1 °F /  18.4 °C 48.6 °F /  9.2 °C 30.3 in /  1026.0 hPa Calm   2 mph /  3.2 km/h 55 % 0 in /  0.0 mm
17:02 65.3 °F /  18.5 °C 48.7 °F /  9.3 °C 30.3 in /  1026.0 hPa Calm   2 mph /  3.2 km/h 55 % 0 in /  0.0 mm
17:07 64.8 °F /  18.2 °C 48.7 °F /  9.3 °C 30.3 in /  1026.0 hPa Calm   3 mph /  4.8 km/h 56 % 0 in /  0.0 mm
17:12 64.6 °F /  18.1 °C 47.5 °F /  8.6 °C 30.3 in /  1026.0 hPa SE 2 mph /  3.2 km/h 5 mph /  8.0 km/h 54 % 0 in /  0.0 mm
17:17 64.6 °F /  18.1 °C 48.6 °F /  9.2 °C 30.3 in /  1025.6 hPa SSW 3 mph /  4.8 km/h 5 mph /  8.0 km/h 56 % 0 in /  0.0 mm
17:22 64.8 °F /  18.2 °C 48.7 °F /  9.3 °C 30.3 in /  1026.0 hPa Calm   5 mph /  8.0 km/h 56 % 0 in /  0.0 mm
17:27 65.1 °F /  18.4 °C 48.6 °F /  9.2 °C 30.3 in /  1026.0 hPa WSW 1 mph /  1.6 km/h 4 mph /  6.4 km/h 55 % 0 in /  0.0 mm
17:32 65.1 °F /  18.4 °C 48.6 °F /  9.2 °C 30.3 in /  1026.0 hPa Calm   4 mph /  6.4 km/h 55 % 0 in /  0.0 mm
17:37 65.7 °F /  18.7 °C 49.1 °F /  9.5 °C 30.3 in /  1025.6 hPa SSW 1 mph /  1.6 km/h 3 mph /  4.8 km/h 55 % 0 in /  0.0 mm
17:42 65.8 °F /  18.8 °C 48.7 °F /  9.3 °C 30.3 in /  1026.0 hPa Calm   3 mph /  4.8 km/h 54 % 0 in /  0.0 mm
17:47 66 °F /  18.9 °C 48.9 °F /  9.4 °C 30.3 in /  1025.6 hPa SSE 2 mph /  3.2 km/h 3 mph /  4.8 km/h 54 % 0 in /  0.0 mm
17:52 65.3 °F /  18.5 °C 48.7 °F /  9.3 °C 30.3 in /  1025.6 hPa Calm   3 mph /  4.8 km/h 55 % 0 in /  0.0 mm
17:57 65.3 °F /  18.5 °C 48.7 °F /  9.3 °C 30.3 in /  1025.6 hPa Calm   3 mph /  4.8 km/h 55 % 0 in /  0.0 mm
18:02 65.7 °F /  18.7 °C 49.1 °F /  9.5 °C 30.3 in /  1025.6 hPa Calm   3 mph /  4.8 km/h 55 % 0 in /  0.0 mm
18:07 65.3 °F /  18.5 °C 48.2 °F /  9.0 °C 30.3 in /  1025.6 hPa WNW 1 mph /  1.6 km/h 1 mph /  1.6 km/h 54 % 0 in /  0.0 mm
18:12 64.8 °F /  18.2 °C 48.2 °F /  9.0 °C 30.3 in /  1025.6 hPa Calm   1 mph /  1.6 km/h 55 % 0 in /  0.0 mm
18:17 64.8 °F /  18.2 °C 48.7 °F /  9.3 °C 30.3 in /  1025.6 hPa Calm   1 mph /  1.6 km/h 56 % 0 in /  0.0 mm
18:22 64.6 °F /  18.1 °C 48 °F /  8.9 °C 30.3 in /  1025.6 hPa Calm   2 mph /  3.2 km/h 55 % 0 in /  0.0 mm
18:32 64.6 °F /  18.1 °C 49.5 °F /  9.7 °C 30.3 in /  1025.6 hPa Calm   2 mph /  3.2 km/h 58 % 0 in /  0.0 mm
18:42 64.8 °F /  18.2 °C 48.7 °F /  9.3 °C 30.3 in /  1025.6 hPa Calm   2 mph /  3.2 km/h 56 % 0 in /  0.0 mm
18:47 64.9 °F /  18.3 °C 50.2 °F /  10.1 °C 30.3 in /  1025.6 hPa Calm   1 mph /  1.6 km/h 59 % 0 in /  0.0 mm
18:52 65.1 °F /  18.4 °C 51.3 °F /  10.7 °C 30.3 in /  1025.6 hPa Calm   1 mph /  1.6 km/h 61 % 0 in /  0.0 mm
18:57 65.7 °F /  18.7 °C 52.3 °F /  11.3 °C 30.3 in /  1025.6 hPa Calm   1 mph /  1.6 km/h 62 % 0 in /  0.0 mm
19:02 64.9 °F /  18.3 °C 52 °F /  11.1 °C 30.3 in /  1025.6 hPa Calm     63 % 0 in /  0.0 mm
19:07 63.5 °F /  17.5 °C 50.2 °F /  10.1 °C 30.3 in /  1025.6 hPa Calm     62 % 0 in /  0.0 mm
19:12 62.2 °F /  16.8 °C 50.4 °F /  10.2 °C 30.3 in /  1025.6 hPa Calm     65 % 0 in /  0.0 mm
19:17 61 °F /  16.1 °C 50.4 °F /  10.2 °C 30.3 in /  1025.6 hPa Calm   1 mph /  1.6 km/h 68 % 0 in /  0.0 mm
19:22 59.7 °F /  15.4 °C 50.4 °F /  10.2 °C 30.3 in /  1025.6 hPa Calm   1 mph /  1.6 km/h 71 % 0 in /  0.0 mm
19:27 59.2 °F /  15.1 °C 50.2 °F /  10.1 °C 30.3 in /  1025.6 hPa Calm   1 mph /  1.6 km/h 72 % 0 in /  0.0 mm
19:32 58.5 °F /  14.7 °C 49.1 °F /  9.5 °C 30.3 in /  1025.6 hPa Calm     71 % 0 in /  0.0 mm
19:37 57.6 °F /  14.2 °C 48.9 °F /  9.4 °C 30.3 in /  1025.6 hPa Calm   1 mph /  1.6 km/h 73 % 0 in /  0.0 mm
19:42 56.8 °F /  13.8 °C 49.3 °F /  9.6 °C 30.3 in /  1025.6 hPa Calm   1 mph /  1.6 km/h 76 % 0 in /  0.0 mm
19:47 56.3 °F /  13.5 °C 49.1 °F /  9.5 °C 30.3 in /  1025.6 hPa Calm   1 mph /  1.6 km/h 77 % 0 in /  0.0 mm
19:52 56.1 °F /  13.4 °C 48.9 °F /  9.4 °C 30.3 in /  1025.6 hPa Calm     77 % 0 in /  0.0 mm
19:57 56.5 °F /  13.6 °C 49.6 °F /  9.8 °C 30.3 in /  1025.6 hPa Calm     78 % 0 in /  0.0 mm
20:02 55.9 °F /  13.3 °C 49.1 °F /  9.5 °C 30.3 in /  1025.6 hPa Calm     78 % 0 in /  0.0 mm
20:12 55.6 °F /  13.1 °C 49.5 °F /  9.7 °C 30.3 in /  1025.6 hPa Calm     80 % 0 in /  0.0 mm
20:17 55.4 °F /  13.0 °C 49.6 °F /  9.8 °C 30.3 in /  1025.6 hPa Calm   1 mph /  1.6 km/h 81 % 0 in /  0.0 mm
20:22 54.7 °F /  12.6 °C 49.6 °F /  9.8 °C 30.3 in /  1025.6 hPa WNW 1 mph /  1.6 km/h 2 mph /  3.2 km/h 83 % 0 in /  0.0 mm
20:27 54.1 °F /  12.3 °C 49.8 °F /  9.9 °C 30.3 in /  1025.3 hPa Calm   2 mph /  3.2 km/h 85 % 0 in /  0.0 mm
20:32 53.8 °F /  12.1 °C 49.6 °F /  9.8 °C 30.3 in /  1025.3 hPa Calm   1 mph /  1.6 km/h 86 % 0 in /  0.0 mm
20:37 53.2 °F /  11.8 °C 49.5 °F /  9.7 °C 30.3 in /  1025.3 hPa WNW 1 mph /  1.6 km/h 2 mph /  3.2 km/h 87 % 0 in /  0.0 mm
20:42 52.9 °F /  11.6 °C 49.5 °F /  9.7 °C 30.3 in /  1025.3 hPa Calm   2 mph /  3.2 km/h 88 % 0 in /  0.0 mm
20:47 52.5 °F /  11.4 °C 49.5 °F /  9.7 °C 30.3 in /  1025.3 hPa WNW 2 mph /  3.2 km/h 2 mph /  3.2 km/h 89 % 0 in /  0.0 mm
20:52 52.5 °F /  11.4 °C 49.5 °F /  9.7 °C 30.3 in /  1025.6 hPa Calm   2 mph /  3.2 km/h 89 % 0 in /  0.0 mm
20:57 52.3 °F /  11.3 °C 49.3 °F /  9.6 °C 30.3 in /  1025.6 hPa North 1 mph /  1.6 km/h 2 mph /  3.2 km/h 89 % 0 in /  0.0 mm
21:02 52.3 °F /  11.3 °C 49.3 °F /  9.6 °C 30.3 in /  1025.6 hPa North 1 mph /  1.6 km/h 2 mph /  3.2 km/h 89 % 0 in /  0.0 mm
21:12 52.2 °F /  11.2 °C 49.3 °F /  9.6 °C 30.3 in /  1025.3 hPa Calm   2 mph /  3.2 km/h 90 % 0 in /  0.0 mm
21:17 52 °F /  11.1 °C 48.9 °F /  9.4 °C 30.3 in /  1025.3 hPa Calm   1 mph /  1.6 km/h 89 % 0 in /  0.0 mm
21:22 51.6 °F /  10.9 °C 48.7 °F /  9.3 °C 30.3 in /  1025.3 hPa WNW 1 mph /  1.6 km/h 1 mph /  1.6 km/h 90 % 0 in /  0.0 mm
21:27 51.4 °F /  10.8 °C 48.6 °F /  9.2 °C 30.3 in /  1025.6 hPa Calm   1 mph /  1.6 km/h 90 % 0 in /  0.0 mm
21:32 51.3 °F /  10.7 °C 48.7 °F /  9.3 °C 30.3 in /  1025.6 hPa Calm   1 mph /  1.6 km/h 91 % 0 in /  0.0 mm
21:37 51.1 °F /  10.6 °C 48.6 °F /  9.2 °C 30.3 in /  1025.6 hPa Calm   1 mph /  1.6 km/h 91 % 0 in /  0.0 mm
21:42 51.4 °F /  10.8 °C 49.3 °F /  9.6 °C 30.3 in /  1025.6 hPa Calm   1 mph /  1.6 km/h 92 % 0 in /  0.0 mm
21:52 51.4 °F /  10.8 °C 48.4 °F /  9.1 °C 30.3 in /  1025.6 hPa Calm   1 mph /  1.6 km/h 89 % 0 in /  0.0 mm
21:57 51.1 °F /  10.6 °C 48 °F /  8.9 °C 30.3 in /  1025.6 hPa Calm   1 mph /  1.6 km/h 89 % 0 in /  0.0 mm
22:02 50.7 °F /  10.4 °C 47.8 °F /  8.8 °C 30.3 in /  1025.6 hPa Calm     90 % 0 in /  0.0 mm
22:07 50.7 °F /  10.4 °C 48.2 °F /  9.0 °C 30.3 in /  1025.6 hPa Calm     91 % 0 in /  0.0 mm
22:17 50.2 °F /  10.1 °C 47.7 °F /  8.7 °C 30.3 in /  1025.6 hPa Calm   1 mph /  1.6 km/h 91 % 0 in /  0.0 mm
22:22 49.8 °F /  9.9 °C 47.3 °F /  8.5 °C 30.3 in /  1025.6 hPa Calm   1 mph /  1.6 km/h 91 % 0 in /  0.0 mm
22:27 49.6 °F /  9.8 °C 47.5 °F /  8.6 °C 30.3 in /  1025.6 hPa WNW 1 mph /  1.6 km/h 1 mph /  1.6 km/h 92 % 0 in /  0.0 mm
22:32 49.6 °F /  9.8 °C 47.5 °F /  8.6 °C 30.3 in /  1025.6 hPa Calm   1 mph /  1.6 km/h 92 % 0 in /  0.0 mm
22:37 49.5 °F /  9.7 °C 47.3 °F /  8.5 °C 30.3 in /  1025.6 hPa NNE 1 mph /  1.6 km/h 1 mph /  1.6 km/h 92 % 0 in /  0.0 mm
22:42 49.6 °F /  9.8 °C 47.7 °F /  8.7 °C 30.3 in /  1025.6 hPa Calm   1 mph /  1.6 km/h 93 % 0 in /  0.0 mm
22:47 49.6 °F /  9.8 °C 47.7 °F /  8.7 °C 30.3 in /  1025.3 hPa Calm   1 mph /  1.6 km/h 93 % 0 in /  0.0 mm
22:52 49.5 °F /  9.7 °C 47.3 °F /  8.5 °C 30.3 in /  1025.3 hPa Calm   1 mph /  1.6 km/h 92 % 0 in /  0.0 mm
22:57 48.9 °F /  9.4 °C 46.8 °F /  8.2 °C 30.3 in /  1025.3 hPa Calm   1 mph /  1.6 km/h 92 % 0 in /  0.0 mm
23:02 48.7 °F /  9.3 °C 46.8 °F /  8.2 °C 30.3 in /  1025.3 hPa Calm     93 % 0 in /  0.0 mm
23:07 48.6 °F /  9.2 °C 46.6 °F /  8.1 °C 30.3 in /  1025.6 hPa Calm     93 % 0 in /  0.0 mm
23:12 48.4 °F /  9.1 °C 46.4 °F /  8.0 °C 30.3 in /  1025.3 hPa Calm     93 % 0 in /  0.0 mm
23:22 48.2 °F /  9.0 °C 46.6 °F /  8.1 °C 30.3 in /  1025.6 hPa Calm   1 mph /  1.6 km/h 94 % 0 in /  0.0 mm
23:27 48.4 °F /  9.1 °C 46.8 °F /  8.2 °C 30.3 in /  1025.3 hPa Calm   1 mph /  1.6 km/h 94 % 0 in /  0.0 mm
23:32 48.4 °F /  9.1 °C 46.8 °F /  8.2 °C 30.3 in /  1025.3 hPa Calm   1 mph /  1.6 km/h 94 % 0 in /  0.0 mm
23:37 48.2 °F /  9.0 °C 46.2 °F /  7.9 °C 30.3 in /  1025.3 hPa Calm   1 mph /  1.6 km/h 93 % 0 in /  0.0 mm
23:42 47.7 °F /  8.7 °C 45.7 °F /  7.6 °C 30.3 in /  1025.6 hPa Calm   1 mph /  1.6 km/h 93 % 0 in /  0.0 mm
23:47 47.8 °F /  8.8 °C 46.2 °F /  7.9 °C 30.3 in /  1025.3 hPa Calm   1 mph /  1.6 km/h 94 % 0 in /  0.0 mm
23:52 47.8 °F /  8.8 °C 46.2 °F /  7.9 °C 30.3 in /  1025.3 hPa Calm   1 mph /  1.6 km/h 94 % 0 in /  0.0 mm
23:57 47.7 °F /  8.7 °C 45.7 °F /  7.6 °C 30.3 in /  1025.3 hPa WNW 1 mph /  1.6 km/h   93 % 0 in /  0.0 mm
Meteo18
Compliments of Weather Underground - 4 mb

Script developed by  Jim McMurry - jmcmurry@mwt.net Adapted for the template by  Wim van der Kuil - Leuven-Template.eu

You find our weather info also at:

European Weather Network

Weather Underground

Equipment we use:

Weather-station
Davis Vue

Weather-program
Meteohub

Weather-server
Raspberry PI 2 B+

Provider
1 and 1

Davis Vue

Meteohub

Raspberry PI 2 B+

1 and 1